** WINDWAARNEMINGEN GEBEUREN SINDS 9-01-2018 OP 9 - 10M HOOGTE**
Het weer levert geen direct gevaar op.    Er zijn geen waarschuwingen afgegeven.

Weercam te Izegem Meer informatie Weercam te Izegem


Lokaal brand risico:
FWI


Regionaal brand risico: Meer informatie



METAR rapporten vliegvelden

   
EBOS - Oostende Airport, Belgium
Afstand tot: NW 39 km
Gewijzigd: 22-06-2018 04:50
Licht bewolkt  
Licht bewolkt  
   Wind: WNW 24.1 km/h
Wind: WNW 24.1 km/h
Temperatuur: 13°C
Dauwpunt: 8°C
Vochtigheid: 72%
Barometer: 1028 hPa
Bewolking: Few Clouds
Zicht: meer dan 10 km
Bewolking: Licht bewolkt 2700 ft
EBOS 220250Z 29013KT 280V030 9999 FEW027 13/08 Q1028 NOSIG
LFQQ - Lille/Lesquin, France
Afstand tot: Z 40 km
Gewijzigd: 22-06-2018 05:00
Helder  
Helder  
   Wind: Westen 11.1 km/h
Wind: Westen 11.1 km/h
Temperatuur: 7°C
Voelt als: 5°C
Dauwpunt: 5°C
Vochtigheid: 87%
Barometer: 1028 hPa
Zicht: meer dan 10 km
Bewolking: Helder ft
LFQQ 220300Z AUTO 27006KT CAVOK 07/05 Q1028 NOSIG
EBFN - Koksijde (bel-Af, Belgium
Afstand tot: WNW 43 km
Gewijzigd: 22-06-2018 04:55
Helder  
Helder  
   Wind: WZW 7.4 km/h
Wind: WZW 7.4 km/h
Temperatuur: 8°C
Voelt als: 7°C
Dauwpunt: 6°C
Vochtigheid: 87%
Barometer: 1028 hPa
Bewolking: Clear
Zicht: meer dan 10 km
Bewolking: Helder ft
EBFN 220255Z AUTO 25004KT 9999 NCD 08/06 Q1028 BLU
EBCV - Chievres Ab, Belgium
Afstand tot: ZO 59 km
Gewijzigd: 22-06-2018 04:55
Helder  
Helder  
   Wind: Westen 7.4 km/h
Wind: Westen 7.4 km/h
Temperatuur: 7°C
Voelt als: 6°C
Dauwpunt: 4°C
Vochtigheid: 81%
Barometer: 1028 hPa
Bewolking: Clear
Zicht: meer dan 10 km
Bewolking: Helder ft
EBCV 220255Z AUTO 26004KT 9999 NCD 07/04 Q1028 BLU
EHFS - Vlissingen, Netherlands
Afstand tot: NNO 65 km
Gewijzigd: 22-06-2018 04:55
Gedeeltelijk bewolkt  
Gedeeltelijk bewolkt  
   Wind: WNW 22.2 km/h
Wind: WNW 22.2 km/h
Temperatuur: 14°C
Dauwpunt: 7°C
Vochtigheid: 63%
Barometer: 1026 hPa
Bewolking: Partly Cloudy
Zicht: meer dan 10 km
Bewolking: Gedeeltelijk bewolkt ft
EHFS 220255Z AUTO 30012KT 270V350 9999 NSC 14/07 Q1026 W///H///
EBBR - Brussels Nationa, Belgium
Afstand tot: O 91 km
Gewijzigd: 22-06-2018 04:50
Helder  
Helder  
   Wind: Westen 13 km/h
Wind: Westen 13 km/h
Temperatuur: 9°C
Voelt als: 7°C
Dauwpunt: 5°C
Vochtigheid: 76%
Barometer: 1026 hPa
Zicht: meer dan 10 km
Bewolking: Helder ft
EBBR 220250Z 27007KT CAVOK 09/05 Q1026 NOSIG
EBAW - Antwerp/Deurne, Belgium
Afstand tot: ONO 94 km
Gewijzigd: 22-06-2018 04:50
Helder  
Helder  
   Wind: Westen 11.1 km/h
Wind: Westen 11.1 km/h
Temperatuur: 10°C
Voelt als: 8°C
Dauwpunt: 6°C
Vochtigheid: 76%
Barometer: 1026 hPa
Zicht: meer dan 10 km
Bewolking: Helder ft
EBAW 220250Z AUTO 26006KT CAVOK 10/06 Q1026
EHWO - Woensdrecht Rnla, Netherlands
Afstand tot: NO 98 km
Gewijzigd: 22-06-2018 04:55
Helder  
Helder  
   Wind: WNW 14.8 km/h
Wind: WNW 14.8 km/h
Temperatuur: 12°C
Dauwpunt: 7°C
Vochtigheid: 72%
Barometer: 1026 hPa
Bewolking: Clear
Zicht: meer dan 10 km
Bewolking: Helder ft
EHWO 220255Z AUTO 29008KT 250V320 9999 NCD 12/07 Q1026 BLU
EBCI - Charleroi/Gossel, Belgium
Afstand tot: OZO 102 km
Gewijzigd: 22-06-2018 04:50
Helder  
Helder  
   Wind: WZW 11.1 km/h
Wind: WZW 11.1 km/h
Temperatuur: 7°C
Voelt als: 5°C
Dauwpunt: 5°C
Vochtigheid: 87%
Barometer: 1027 hPa
Zicht: meer dan 10 km
Bewolking: Helder ft
EBCI 220250Z 25006KT CAVOK 07/05 Q1027 NOSIG

Script ontwikkeld door  Saratoga-weather.org Aangepast voor de template door  Weerstation Leuven